Time;durP1;ratioP1;P1;durP2;ratioP2;P2;SDS_P1;SDS_P2;PMS_P1;PMS_P2;Temp;Humidity;BMP_temperature;BMP_pressure;BME280_temperature;BME280_humidity;BME280_pressure;Samples;Min_cycle;Max_cycle;Signal;HPM_P1;HPM_P2
2023/08/08 00:00:28;;;;;;;19.92;8.63;;;;;;;14.29;100.00;101368.38;5055585;28;20485;-70
2023/08/08 00:02:53;;;;;;;16.02;9.00;;;;;;;14.36;100.00;101366.16;5056570;28;20033;-71
2023/08/08 00:05:19;;;;;;;13.55;7.45;;;;;;;14.36;100.00;101368.81;5053519;28;20735;-70
2023/08/08 00:07:44;;;;;;;11.48;7.90;;;;;;;14.34;100.00;101358.19;5057973;28;20820;-71
2023/08/08 00:10:10;;;;;;;22.98;9.07;;;;;;;14.24;100.00;101357.97;5058860;28;22030;-70
2023/08/08 00:12:35;;;;;;;19.77;8.68;;;;;;;14.22;100.00;101353.69;5055397;28;20477;-70
2023/08/08 00:15:02;;;;;;;14.15;8.07;;;;;;;14.17;100.00;101348.66;5059982;28;20037;-72
2023/08/08 00:17:27;;;;;;;17.85;9.73;;;;;;;14.17;100.00;101354.03;5054973;28;20040;-71
2023/08/08 00:19:53;;;;;;;13.55;8.70;;;;;;;14.19;100.00;101343.16;5058736;28;20039;-71
2023/08/08 00:22:18;;;;;;;15.68;8.68;;;;;;;14.16;100.00;101346.09;5055194;28;20494;-72
2023/08/08 00:24:44;;;;;;;20.27;8.70;;;;;;;14.08;100.00;101343.94;5054636;28;20455;-71
2023/08/08 00:27:09;;;;;;;16.35;9.23;;;;;;;14.07;100.00;101341.38;5054838;28;20069;-70
2023/08/08 00:29:35;;;;;;;14.20;8.93;;;;;;;14.12;100.00;101345.44;5053657;28;20047;-71
2023/08/08 00:32:01;;;;;;;21.60;8.90;;;;;;;14.11;100.00;101350.91;5053772;28;20505;-70
2023/08/08 00:34:26;;;;;;;13.55;8.57;;;;;;;14.20;100.00;101339.53;5043105;28;20391;-71
2023/08/08 00:36:52;;;;;;;14.85;8.93;;;;;;;14.25;100.00;101340.06;5055868;28;20041;-72
2023/08/08 00:39:17;;;;;;;16.40;9.52;;;;;;;14.29;100.00;101338.88;5055630;28;20749;-70
2023/08/08 00:41:43;;;;;;;16.88;9.23;;;;;;;14.37;100.00;101331.16;5066232;28;20401;-70
2023/08/08 00:44:08;;;;;;;15.00;9.02;;;;;;;14.34;100.00;101333.19;5048214;28;20099;-71
2023/08/08 00:46:34;;;;;;;14.75;8.15;;;;;;;14.36;100.00;101329.44;5057616;28;20544;-71
2023/08/08 00:49:00;;;;;;;18.45;8.63;;;;;;;14.40;100.00;101324.69;5049969;28;20068;-71
2023/08/08 00:51:25;;;;;;;14.85;8.82;;;;;;;14.37;100.00;101319.56;5055134;28;20037;-71
2023/08/08 00:53:54;;;;;;;21.23;8.50;;;;;;;14.46;100.00;101326.97;5057569;28;20259;-70
2023/08/08 00:56:20;;;;;;;16.85;8.13;;;;;;;14.52;100.00;101323.00;5088197;28;20897;-72
2023/08/08 00:58:46;;;;;;;13.00;8.68;;;;;;;14.50;100.00;101318.56;5053596;28;20141;-71
2023/08/08 01:01:12;;;;;;;17.65;8.70;;;;;;;14.49;100.00;101322.25;5090494;27;20033;-71
2023/08/08 01:03:37;;;;;;;12.32;8.30;;;;;;;14.56;100.00;101324.47;5054603;28;20144;-72
2023/08/08 01:06:28;;;;;;;14.30;8.18;;;;;;;14.63;100.00;101321.25;5057705;28;20469;-71
2023/08/08 01:09:20;;;;;;;15.00;7.80;;;;;;;14.67;100.00;101320.06;5048871;28;20045;-71
2023/08/08 01:11:48;;;;;;;16.42;7.97;;;;;;;14.73;100.00;101324.13;5054715;28;20035;-71
2023/08/08 01:14:16;;;;;;;16.17;7.85;;;;;;;14.76;100.00;101316.72;5046832;28;20037;-70
2023/08/08 01:16:42;;;;;;;15.40;7.88;;;;;;;14.62;100.00;101318.69;5058661;28;20040;-71
2023/08/08 01:19:14;;;;;;;15.48;7.90;;;;;;;14.64;100.00;101320.28;5050494;28;20056;-72
2023/08/08 01:21:44;;;;;;;15.00;7.43;;;;;;;14.75;100.00;101324.84;5056651;28;20036;-71
2023/08/08 01:24:23;;;;;;;13.77;7.63;;;;;;;14.68;100.00;101323.59;5069526;28;20037;-71
2023/08/08 01:26:49;;;;;;;16.77;8.77;;;;;;;14.71;100.00;101318.00;5049929;28;20037;-72
2023/08/08 01:29:15;;;;;;;16.63;7.70;;;;;;;14.61;100.00;101325.88;5053842;28;20135;-71
2023/08/08 01:31:40;;;;;;;16.23;7.80;;;;;;;14.54;100.00;101311.16;5055151;28;20040;-70
2023/08/08 01:34:07;;;;;;;13.93;7.88;;;;;;;14.53;100.00;101314.84;5053777;28;20049;-70
2023/08/08 01:36:42;;;;;;;12.90;8.07;;;;;;;14.55;100.00;101309.34;5050537;28;20037;-71
2023/08/08 01:39:16;;;;;;;12.25;7.05;;;;;;;14.48;100.00;101314.31;5043477;28;20136;-70
2023/08/08 01:41:44;;;;;;;19.92;7.82;;;;;;;14.44;100.00;101327.03;5049772;28;20033;-70
2023/08/08 01:44:10;;;;;;;16.27;8.23;;;;;;;14.39;100.00;101313.09;5081425;27;20033;-70
2023/08/08 01:46:38;;;;;;;22.00;8.48;;;;;;;14.30;100.00;101320.94;5081418;28;20029;-70
2023/08/08 01:49:04;;;;;;;14.60;7.93;;;;;;;14.28;100.00;101323.75;5046588;28;20123;-70
2023/08/08 01:51:29;;;;;;;20.05;9.38;;;;;;;14.27;100.00;101330.09;5048171;28;20037;-70
2023/08/08 01:53:56;;;;;;;19.13;8.40;;;;;;;14.11;100.00;101319.59;5046412;28;20029;-71
2023/08/08 01:56:22;;;;;;;16.38;8.40;;;;;;;14.05;100.00;101319.16;5041400;28;20037;-70
2023/08/08 01:58:47;;;;;;;14.48;8.23;;;;;;;14.04;100.00;101320.13;5045741;28;20033;-70
2023/08/08 02:01:13;;;;;;;24.80;8.60;;;;;;;14.05;100.00;101313.78;5067258;28;20490;-70
2023/08/08 02:03:38;;;;;;;15.75;7.78;;;;;;;13.99;100.00;101323.13;5051170;28;20844;-70
2023/08/08 02:06:04;;;;;;;17.63;7.60;;;;;;;14.00;100.00;101319.47;5046349;28;20813;-71
2023/08/08 02:08:30;;;;;;;16.08;8.35;;;;;;;14.00;100.00;101314.09;5083266;27;20041;-70
2023/08/08 02:10:55;;;;;;;24.73;8.45;;;;;;;13.95;100.00;101313.56;5082744;28;20037;-71
2023/08/08 02:13:21;;;;;;;17.02;7.85;;;;;;;14.02;100.00;101314.00;5050768;28;20728;-70
2023/08/08 02:15:47;;;;;;;20.05;8.82;;;;;;;14.06;100.00;101311.00;5038215;28;20047;-70
2023/08/08 02:18:13;;;;;;;19.17;8.25;;;;;;;14.09;100.00;101310.78;5050225;28;20791;-70
2023/08/08 02:20:39;;;;;;;16.10;7.20;;;;;;;14.16;100.00;101304.03;5048085;28;20194;-70
2023/08/08 02:23:05;;;;;;;17.55;7.35;;;;;;;14.21;100.00;101307.25;5049109;28;20206;-71
2023/08/08 02:25:31;;;;;;;14.80;7.80;;;;;;;14.23;100.00;101299.06;5050674;28;20043;-70
2023/08/08 02:27:57;;;;;;;20.58;7.25;;;;;;;14.24;100.00;101290.91;5085335;28;20052;-70
2023/08/08 02:30:23;;;;;;;17.00;7.43;;;;;;;14.30;100.00;101280.72;5052376;28;20045;-71
2023/08/08 02:32:48;;;;;;;13.13;7.97;;;;;;;14.31;100.00;101277.94;5041841;28;20037;-70
2023/08/08 02:35:14;;;;;;;15.10;7.47;;;;;;;14.28;100.00;101277.28;5053341;28;20451;-71
2023/08/08 02:37:41;;;;;;;20.08;8.15;;;;;;;14.31;100.00;101277.94;5085574;28;20067;-70
2023/08/08 02:40:09;;;;;;;15.30;6.82;;;;;;;14.32;100.00;101274.28;5053383;28;20033;-70
2023/08/08 02:42:35;;;;;;;16.40;7.50;;;;;;;14.33;100.00;101267.09;5058211;28;20108;-70
2023/08/08 02:45:01;;;;;;;18.95;8.10;;;;;;;14.43;100.00;101260.94;5085069;27;20107;-70
2023/08/08 02:47:26;;;;;;;18.48;7.22;;;;;;;14.42;100.00;101274.47;5049965;28;20843;-71
2023/08/08 02:49:52;;;;;;;18.00;7.25;;;;;;;14.33;100.00;101275.13;5050427;28;20049;-70
2023/08/08 02:52:18;;;;;;;20.55;7.78;;;;;;;14.31;100.00;101277.06;5046478;28;20472;-70
2023/08/08 02:54:43;;;;;;;22.05;8.00;;;;;;;14.23;100.00;101273.09;5052973;28;20063;-71
2023/08/08 02:57:11;;;;;;;17.63;8.10;;;;;;;14.20;100.00;101267.09;5053543;28;20527;-70
2023/08/08 02:59:37;;;;;;;20.42;8.05;;;;;;;14.05;100.00;101271.72;5051432;28;20025;-71
2023/08/08 03:02:05;;;;;;;16.63;7.47;;;;;;;14.03;100.00;101262.94;5051166;28;20044;-70
2023/08/08 03:04:32;;;;;;;18.40;8.50;;;;;;;14.00;100.00;101268.50;5083976;28;20053;-70
2023/08/08 03:06:58;;;;;;;15.45;7.18;;;;;;;14.00;100.00;101263.16;5053561;28;20048;-70
2023/08/08 03:09:24;;;;;;;14.68;6.95;;;;;;;13.91;100.00;101270.06;5085333;27;20041;-71
2023/08/08 03:11:50;;;;;;;16.13;7.35;;;;;;;13.92;100.00;101270.91;5035445;28;20033;-71
2023/08/08 03:14:16;;;;;;;17.52;6.97;;;;;;;13.87;100.00;101273.06;5050229;28;20916;-70
2023/08/08 03:16:42;;;;;;;23.15;8.10;;;;;;;13.87;100.00;101270.38;5052782;28;20849;-70
2023/08/08 03:19:10;;;;;;;13.52;6.80;;;;;;;13.79;100.00;101265.53;5067444;28;20116;-71
2023/08/08 03:21:37;;;;;;;16.13;7.30;;;;;;;13.76;100.00;101271.13;5060672;28;20029;-70
2023/08/08 03:24:03;;;;;;;18.08;7.72;;;;;;;13.74;100.00;101281.06;5035532;28;20042;-70
2023/08/08 03:26:29;;;;;;;17.42;7.20;;;;;;;13.79;100.00;101276.25;5052202;28;20079;-70
2023/08/08 03:28:55;;;;;;;17.98;7.47;;;;;;;13.70;100.00;101268.84;5052595;28;20752;-71
2023/08/08 03:31:28;;;;;;;17.13;8.75;;;;;;;13.78;100.00;101274.53;5058981;28;20139;-70
2023/08/08 03:33:54;;;;;;;16.85;8.55;;;;;;;13.84;100.00;101270.56;5051360;28;20029;-70
2023/08/08 03:36:20;;;;;;;18.65;9.07;;;;;;;13.78;100.00;101276.38;5051760;28;20048;-70
2023/08/08 03:38:46;;;;;;;18.92;9.18;;;;;;;13.74;100.00;101273.88;5083380;27;20111;-70
2023/08/08 03:41:13;;;;;;;20.55;10.57;;;;;;;13.84;100.00;101278.63;5068573;28;20040;-70
2023/08/08 03:43:39;;;;;;;31.42;11.15;;;;;;;13.83;100.00;101268.88;5060684;28;20037;-70
2023/08/08 03:46:05;;;;;;;23.02;10.52;;;;;;;13.93;100.00;101270.78;5060895;28;20965;-71
2023/08/08 03:48:31;;;;;;;21.70;10.57;;;;;;;13.86;100.00;101271.34;5051917;28;20025;-70
2023/08/08 03:50:56;;;;;;;23.50;10.32;;;;;;;13.93;100.00;101269.94;5052245;28;20040;-70
2023/08/08 03:53:22;;;;;;;17.80;9.85;;;;;;;13.90;100.00;101268.31;5052927;28;20128;-70
2023/08/08 03:55:48;;;;;;;21.67;11.07;;;;;;;13.88;100.00;101266.72;5051152;28;20896;-71
2023/08/08 03:58:15;;;;;;;30.17;10.93;;;;;;;13.94;100.00;101271.63;5067466;28;20040;-70
2023/08/08 04:00:45;;;;;;;25.13;11.80;;;;;;;13.93;100.00;101264.56;5049112;28;20037;-70
2023/08/08 04:03:15;;;;;;;23.58;10.88;;;;;;;13.96;100.00;101262.53;5053046;28;20136;-70
2023/08/08 04:05:46;;;;;;;26.38;10.77;;;;;;;13.85;100.00;101256.19;5045785;28;20060;-70
2023/08/08 04:08:11;;;;;;;28.13;11.77;;;;;;;13.97;100.00;101256.19;5050979;28;20025;-70
2023/08/08 04:10:37;;;;;;;31.83;13.05;;;;;;;13.95;100.00;101262.63;5046686;28;20735;-70
2023/08/08 04:13:03;;;;;;;33.22;12.40;;;;;;;13.96;100.00;101267.91;5050598;28;20041;-70
2023/08/08 04:15:28;;;;;;;28.17;12.27;;;;;;;13.97;100.00;101264.25;5066279;28;20041;-71
2023/08/08 04:17:54;;;;;;;37.30;13.32;;;;;;;14.09;100.00;101265.19;5060170;28;20083;-71
2023/08/08 04:20:19;;;;;;;27.98;12.90;;;;;;;14.17;100.00;101260.16;5050490;28;20045;-70
2023/08/08 04:22:45;;;;;;;32.08;14.15;;;;;;;14.16;100.00;101268.31;5046897;28;20037;-70
2023/08/08 04:25:10;;;;;;;25.23;12.05;;;;;;;14.21;100.00;101261.66;5045108;28;20030;-71
2023/08/08 04:27:36;;;;;;;34.38;13.55;;;;;;;14.22;100.00;101260.66;5048917;28;20134;-71
2023/08/08 04:30:03;;;;;;;29.88;12.75;;;;;;;14.25;100.00;101264.94;5048673;28;20048;-71
2023/08/08 04:32:28;;;;;;;24.88;13.07;;;;;;;14.23;100.00;101265.06;5038045;28;20064;-71
2023/08/08 04:34:54;;;;;;;28.85;13.35;;;;;;;14.25;100.00;101254.22;5046632;28;20712;-71
2023/08/08 04:37:20;;;;;;;30.38;13.93;;;;;;;14.31;100.00;101255.59;5043840;28;20038;-71
2023/08/08 04:39:45;;;;;;;34.83;13.73;;;;;;;14.36;100.00;101256.16;5041646;28;20049;-70
2023/08/08 04:42:10;;;;;;;34.63;14.23;;;;;;;14.45;100.00;101250.94;5049427;28;20139;-70
2023/08/08 04:44:36;;;;;;;33.15;15.00;;;;;;;14.39;100.00;101253.22;5042910;28;20033;-71
2023/08/08 04:47:02;;;;;;;27.35;13.45;;;;;;;14.37;100.00;101255.16;5041755;28;20508;-70
2023/08/08 04:49:28;;;;;;;36.80;14.48;;;;;;;14.40;100.00;101255.78;5047083;28;20045;-70
2023/08/08 04:51:54;;;;;;;37.40;14.55;;;;;;;14.40;100.00;101249.56;5048162;28;20033;-71
2023/08/08 04:54:20;;;;;;;29.60;14.00;;;;;;;14.41;100.00;101254.84;5049443;28;20037;-71
2023/08/08 04:56:45;;;;;;;25.80;13.18;;;;;;;14.40;100.00;101249.56;5048165;28;20037;-71
2023/08/08 04:59:10;;;;;;;35.70;14.55;;;;;;;14.49;100.00;101249.78;5041401;28;20720;-71
2023/08/08 05:01:36;;;;;;;28.80;12.73;;;;;;;14.48;100.00;101237.34;5042442;28;20103;-70
2023/08/08 05:04:02;;;;;;;31.27;13.98;;;;;;;14.56;100.00;101242.16;5043276;28;20887;-70
2023/08/08 05:06:27;;;;;;;29.60;13.55;;;;;;;14.57;100.00;101238.50;5042970;28;20485;-71
2023/08/08 05:08:53;;;;;;;41.92;15.55;;;;;;;14.63;100.00;101232.66;5059941;28;20406;-71
2023/08/08 05:11:18;;;;;;;32.78;14.07;;;;;;;14.60;100.00;101232.88;5050173;28;20029;-70
2023/08/08 05:13:45;;;;;;;29.55;13.52;;;;;;;14.73;100.00;101235.53;5041688;28;20985;-71
2023/08/08 05:16:11;;;;;;;31.42;14.38;;;;;;;14.60;100.00;101230.19;5042648;28;20130;-71
2023/08/08 05:18:36;;;;;;;33.00;14.63;;;;;;;14.58;100.00;101225.94;5073231;27;20115;-71
2023/08/08 05:21:02;;;;;;;36.22;15.75;;;;;;;14.66;100.00;101228.88;5041536;28;20052;-71
2023/08/08 05:23:27;;;;;;;31.38;14.70;;;;;;;14.61;100.00;101225.69;5048009;28;20080;-71
2023/08/08 05:25:53;;;;;;;33.30;14.50;;;;;;;14.65;100.00;101225.34;5041861;28;20061;-71
2023/08/08 05:28:18;;;;;;;30.98;14.50;;;;;;;14.87;100.00;101218.41;5047549;28;20112;-71
2023/08/08 05:30:44;;;;;;;28.67;13.05;;;;;;;14.86;100.00;101219.34;5044089;28;20042;-71
2023/08/08 05:33:09;;;;;;;28.02;15.00;;;;;;;15.14;100.00;101221.66;5046321;28;20033;-71
2023/08/08 05:35:35;;;;;;;31.48;14.70;;;;;;;15.21;100.00;101216.66;5052249;28;20489;-71
2023/08/08 05:38:00;;;;;;;28.90;12.73;;;;;;;15.25;100.00;101223.50;5048705;28;20764;-71
2023/08/08 05:40:26;;;;;;;26.42;12.55;;;;;;;15.34;100.00;101211.22;5051921;28;20068;-71
2023/08/08 05:42:52;;;;;;;32.63;13.15;;;;;;;15.24;100.00;101217.28;5045934;28;20033;-71
2023/08/08 05:45:17;;;;;;;29.80;13.43;;;;;;;15.38;100.00;101218.91;5049138;28;20037;-71
2023/08/08 05:47:43;;;;;;;28.95;12.98;;;;;;;15.42;100.00;101212.34;5048689;28;20789;-71
2023/08/08 05:50:08;;;;;;;25.45;12.75;;;;;;;15.71;100.00;101214.56;5047153;28;20045;-71
2023/08/08 05:52:34;;;;;;;30.08;12.40;;;;;;;15.91;100.00;101202.25;5048077;28;20037;-71
2023/08/08 05:55:00;;;;;;;27.52;12.43;;;;;;;15.92;100.00;101199.44;5034459;28;20037;-71
2023/08/08 05:57:26;;;;;;;33.08;13.38;;;;;;;15.86;100.00;101202.59;5044243;28;20068;-71
2023/08/08 05:59:51;;;;;;;21.67;12.43;;;;;;;15.84;100.00;101201.03;5047270;28;20037;-71
2023/08/08 06:02:17;;;;;;;18.95;11.57;;;;;;;15.94;100.00;101208.25;5046442;28;20844;-71
2023/08/08 06:04:43;;;;;;;24.63;12.57;;;;;;;16.15;100.00;101200.25;5046448;28;20061;-71
2023/08/08 06:07:09;;;;;;;23.10;11.85;;;;;;;16.18;100.00;101205.41;5045822;28;20119;-71
2023/08/08 06:09:36;;;;;;;20.20;11.18;;;;;;;16.30;100.00;101200.84;5039892;28;20041;-71
2023/08/08 06:12:02;;;;;;;26.10;11.32;;;;;;;16.56;100.00;101204.94;5039936;28;20044;-71
2023/08/08 06:14:28;;;;;;;26.58;11.60;;;;;;;16.48;100.00;101203.88;5042793;28;20033;-71
2023/08/08 06:16:54;;;;;;;25.23;11.88;;;;;;;16.53;100.00;101205.22;5046263;28;20037;-71
2023/08/08 06:19:19;;;;;;;28.35;12.18;;;;;;;16.53;100.00;101212.44;5041774;28;20034;-71
2023/08/08 06:21:46;;;;;;;26.02;11.13;;;;;;;16.67;100.00;101214.84;5043623;28;20068;-71
2023/08/08 06:24:11;;;;;;;28.48;10.45;;;;;;;17.01;100.00;101214.72;5047446;28;20064;-71
2023/08/08 06:26:37;;;;;;;23.65;10.15;;;;;;;17.13;100.00;101208.31;5045977;28;20111;-71
2023/08/08 06:29:03;;;;;;;19.83;11.10;;;;;;;17.13;100.00;101208.31;5041101;28;20041;-71
2023/08/08 06:31:29;;;;;;;21.63;10.52;;;;;;;17.08;100.00;101210.53;5045879;28;20035;-71
2023/08/08 06:33:55;;;;;;;23.98;10.60;;;;;;;16.96;100.00;101214.25;5046867;28;20575;-71
2023/08/08 06:36:20;;;;;;;24.90;9.80;;;;;;;17.00;100.00;101221.09;5045793;28;35465;-71
2023/08/08 06:38:46;;;;;;;20.83;9.90;;;;;;;17.21;100.00;101221.97;5047533;28;20045;-71
2023/08/08 06:41:11;;;;;;;20.00;9.05;;;;;;;17.30;100.00;101221.19;5043847;28;20040;-71
2023/08/08 06:43:37;;;;;;;19.55;8.70;;;;;;;17.67;100.00;101215.34;5040962;28;20044;-71
2023/08/08 06:46:02;;;;;;;17.90;7.45;;;;;;;17.65;100.00;101217.28;5049580;28;20107;-71
2023/08/08 06:48:28;;;;;;;18.25;6.55;;;;;;;17.84;100.00;101205.78;5050712;28;20044;-71
2023/08/08 06:50:53;;;;;;;15.60;6.90;;;;;;;17.95;100.00;101202.97;5063379;28;20033;-71
2023/08/08 06:53:19;;;;;;;16.83;5.93;;;;;;;17.88;100.00;101206.38;5049758;28;20981;-71
2023/08/08 06:55:44;;;;;;;14.55;5.82;;;;;;;17.41;100.00;101203.22;5047505;28;20969;-71
2023/08/08 06:58:10;;;;;;;12.38;5.07;;;;;;;17.26;100.00;101211.66;5049857;28;20850;-71
2023/08/08 07:00:35;;;;;;;13.55;5.63;;;;;;;17.34;100.00;101209.16;5050296;28;20041;-71
2023/08/08 07:03:01;;;;;;;11.73;4.88;;;;;;;17.34;100.00;101206.47;5050726;28;20140;-71
2023/08/08 07:05:26;;;;;;;13.43;4.75;;;;;;;17.65;100.00;101208.34;5049575;28;20060;-71
2023/08/08 07:07:52;;;;;;;14.02;5.22;;;;;;;17.64;100.00;101202.09;5051323;28;20047;-71
2023/08/08 07:10:19;;;;;;;8.88;3.92;;;;;;;17.89;100.00;101211.63;5048907;28;20091;-72
2023/08/08 07:12:45;;;;;;;13.57;4.35;;;;;;;18.15;100.00;101205.75;5049593;28;20033;-71
2023/08/08 07:15:10;;;;;;;14.43;4.90;;;;;;;18.22;100.00;101201.50;5042443;28;20140;-71
2023/08/08 07:17:36;;;;;;;8.88;4.43;;;;;;;18.19;100.00;101207.19;5049098;28;20140;-70
2023/08/08 07:20:02;;;;;;;12.75;5.35;;;;;;;18.34;100.00;101208.50;5050222;28;20036;-71
2023/08/08 07:22:28;;;;;;;11.43;4.82;;;;;;;18.37;100.00;101198.28;5048735;28;20052;-71
2023/08/08 07:24:53;;;;;;;10.25;4.35;;;;;;;18.48;100.00;101193.75;5048411;28;20069;-71
2023/08/08 07:27:19;;;;;;;11.65;4.95;;;;;;;18.66;100.00;101202.88;5048874;28;20033;-71
2023/08/08 07:29:44;;;;;;;11.68;4.47;;;;;;;18.65;100.00;101201.16;5031414;28;20041;-70
2023/08/08 07:32:10;;;;;;;13.32;4.45;;;;;;;18.70;100.00;101200.78;5043599;28;21091;-71
2023/08/08 07:34:36;;;;;;;9.52;4.32;;;;;;;19.04;100.00;101198.50;5049648;28;20041;-71
2023/08/08 07:37:02;;;;;;;8.75;4.43;;;;;;;19.09;100.00;101194.38;5049249;28;20667;-71
2023/08/08 07:39:28;;;;;;;11.23;4.40;;;;;;;19.36;100.00;101182.78;5049303;28;20072;-71
2023/08/08 07:41:53;;;;;;;9.93;4.20;;;;;;;19.79;100.00;101178.72;5043008;28;20044;-71
2023/08/08 07:44:19;;;;;;;16.45;4.38;;;;;;;20.45;100.00;101174.94;5049027;28;20076;-71
2023/08/08 07:46:45;;;;;;;14.43;3.83;;;;;;;19.94;100.00;101179.06;5045751;28;20041;-71
2023/08/08 07:49:10;;;;;;;9.60;3.03;;;;;;;19.94;95.20;101189.06;5048214;28;20048;-72
2023/08/08 07:51:36;;;;;;;11.13;3.22;;;;;;;19.89;96.31;101190.34;5048504;28;20114;-71
2023/08/08 07:54:02;;;;;;;9.02;3.15;;;;;;;19.54;95.74;101190.16;5043079;28;20033;-71
2023/08/08 07:56:27;;;;;;;7.95;2.97;;;;;;;19.76;95.54;101179.00;5043955;28;20064;-71
2023/08/08 07:58:53;;;;;;;13.63;3.28;;;;;;;19.72;97.21;101183.00;5048714;28;20037;-71
2023/08/08 08:01:18;;;;;;;6.32;3.20;;;;;;;19.96;97.94;101182.47;5050247;28;20037;-71
2023/08/08 08:03:44;;;;;;;7.57;2.88;;;;;;;20.06;97.82;101185.13;5049460;28;20049;-71
2023/08/08 08:06:11;;;;;;;9.15;2.60;;;;;;;19.61;92.00;101188.59;5050635;28;20116;-71
2023/08/08 08:08:37;;;;;;;10.20;2.50;;;;;;;19.89;93.62;101184.09;5049531;28;20025;-71
2023/08/08 08:11:03;;;;;;;9.88;3.28;;;;;;;20.22;92.96;101179.06;5048284;28;20044;-71
2023/08/08 08:13:28;;;;;;;7.72;2.72;;;;;;;20.21;91.87;101185.47;5057325;28;20037;-71
2023/08/08 08:15:54;;;;;;;4.88;2.17;;;;;;;20.00;88.09;101178.47;5047979;28;20043;-71
2023/08/08 08:18:20;;;;;;;7.90;2.05;;;;;;;20.22;84.75;101173.63;5048272;28;20953;-71
2023/08/08 08:20:46;;;;;;;10.90;2.60;;;;;;;20.30;83.87;101180.00;5048397;28;20025;-71
2023/08/08 08:23:13;;;;;;;10.63;2.50;;;;;;;20.75;85.10;101168.31;5043459;28;20037;-71
2023/08/08 08:25:38;;;;;;;8.05;1.60;;;;;;;20.35;82.91;101174.13;5048428;28;20039;-71
2023/08/08 08:28:04;;;;;;;7.45;2.05;;;;;;;19.90;82.08;101170.41;5047542;28;20040;-71
2023/08/08 08:30:30;;;;;;;6.43;1.80;;;;;;;20.09;79.78;101176.72;5047847;28;20960;-71
2023/08/08 08:32:56;;;;;;;6.03;1.67;;;;;;;20.21;78.66;101174.66;5047664;28;20845;-71
2023/08/08 08:35:22;;;;;;;5.05;1.65;;;;;;;20.26;77.49;101170.47;5048542;28;20781;-71
2023/08/08 08:37:48;;;;;;;2.78;1.60;;;;;;;20.18;76.59;101164.97;5047693;28;20029;-71
2023/08/08 08:40:14;;;;;;;4.68;1.50;;;;;;;20.19;77.11;101169.41;5045843;28;20029;-71
2023/08/08 08:42:40;;;;;;;3.92;1.50;;;;;;;19.88;76.43;101166.13;5061057;28;20805;-71
2023/08/08 08:45:08;;;;;;;3.83;1.83;;;;;;;19.90;75.58;101169.53;5047031;28;20542;-71
2023/08/08 08:47:36;;;;;;;7.85;1.90;;;;;;;20.04;77.40;101162.78;5049034;28;20505;-71
2023/08/08 08:50:03;;;;;;;4.05;1.45;;;;;;;20.32;77.75;101167.16;5046853;28;20037;-71
2023/08/08 08:52:29;;;;;;;3.97;1.30;;;;;;;20.61;77.28;101174.28;5081182;28;20040;-71
2023/08/08 08:54:56;;;;;;;10.10;1.80;;;;;;;20.88;75.21;101157.94;5048348;28;20040;-71
2023/08/08 08:57:23;;;;;;;3.88;1.30;;;;;;;21.12;73.47;101164.53;5040035;28;20483;-71
2023/08/08 08:59:49;;;;;;;6.00;1.50;;;;;;;21.00;70.72;101169.38;5048854;28;20991;-71
2023/08/08 09:02:15;;;;;;;7.07;1.90;;;;;;;20.60;69.73;101162.59;5047515;28;20181;-71
2023/08/08 09:04:42;;;;;;;3.85;1.42;;;;;;;20.83;71.72;101162.94;5070905;28;20049;-71
2023/08/08 09:07:09;;;;;;;1.52;1.20;;;;;;;21.10;70.22;101164.72;5043637;28;20554;-71
2023/08/08 09:09:36;;;;;;;3.55;1.50;;;;;;;20.67;70.34;101162.81;5048415;28;20041;-71
2023/08/08 09:12:04;;;;;;;6.35;1.75;;;;;;;20.90;72.86;101169.47;5047670;28;20863;-71
2023/08/08 09:14:30;;;;;;;4.40;1.55;;;;;;;20.83;70.75;101164.81;5046327;28;20033;-71
2023/08/08 09:16:57;;;;;;;4.55;1.45;;;;;;;20.55;69.24;101169.47;5046925;28;20033;-72
2023/08/08 09:19:23;;;;;;;4.28;1.73;;;;;;;20.61;69.84;101171.56;5048413;28;20509;-71
2023/08/08 09:21:50;;;;;;;2.35;1.40;;;;;;;20.76;68.65;101170.00;5046472;28;20170;-71
2023/08/08 09:24:16;;;;;;;5.10;1.17;;;;;;;20.97;70.17;101176.97;5047333;28;20025;-71
2023/08/08 09:26:43;;;;;;;3.50;1.20;;;;;;;21.10;67.57;101169.28;5048208;28;20033;-71
2023/08/08 09:29:09;;;;;;;1.50;0.98;;;;;;;20.77;69.36;101168.16;5047658;28;21100;-71
2023/08/08 09:31:35;;;;;;;3.22;1.42;;;;;;;20.78;68.09;101176.13;5040494;28;20300;-71
2023/08/08 09:34:03;;;;;;;3.38;1.20;;;;;;;20.71;66.85;101172.34;5047379;28;20033;-71
2023/08/08 09:36:28;;;;;;;3.70;1.10;;;;;;;20.48;66.84;101193.59;5044572;28;20040;-72
2023/08/08 09:38:55;;;;;;;3.15;1.00;;;;;;;20.20;67.70;101184.63;5042534;28;20044;-71
2023/08/08 09:41:22;;;;;;;1.20;1.10;;;;;;;20.66;66.80;101186.34;5047412;28;20052;-71
2023/08/08 09:43:50;;;;;;;1.50;1.00;;;;;;;20.47;64.93;101185.63;5047093;28;20033;-71
2023/08/08 09:46:15;;;;;;;2.38;1.02;;;;;;;20.55;65.06;101183.03;5042857;28;20047;-71
2023/08/08 09:48:42;;;;;;;4.15;1.13;;;;;;;20.63;65.26;101189.38;5044682;28;20053;-71
2023/08/08 09:51:08;;;;;;;4.28;1.20;;;;;;;20.93;64.86;101187.25;5048003;28;20037;-71
2023/08/08 09:53:34;;;;;;;2.20;0.95;;;;;;;20.93;64.37;101192.69;5047692;28;20088;-71
2023/08/08 09:56:03;;;;;;;1.85;0.90;;;;;;;21.00;62.67;101184.78;5047594;28;20037;-70
2023/08/08 09:58:29;;;;;;;1.55;0.90;;;;;;;21.11;63.10;101184.53;5049681;28;20064;-71
2023/08/08 10:00:55;;;;;;;1.70;0.80;;;;;;;21.08;64.38;101182.13;5047136;28;20051;-71
2023/08/08 10:03:22;;;;;;;1.90;1.20;;;;;;;21.07;63.21;101178.56;5047323;28;20044;-71
2023/08/08 10:05:47;;;;;;;2.00;0.82;;;;;;;21.38;64.78;101172.72;5048091;28;20282;-71
2023/08/08 10:08:15;;;;;;;2.28;1.10;;;;;;;21.81;65.78;101177.22;5049609;28;20037;-71
2023/08/08 10:10:43;;;;;;;2.42;1.08;;;;;;;21.35;64.38;101173.91;5049248;28;20084;-71
2023/08/08 10:13:10;;;;;;;6.82;1.35;;;;;;;21.28;63.80;101185.50;5046733;28;20071;-71
2023/08/08 10:15:39;;;;;;;3.03;1.20;;;;;;;21.27;63.93;101175.66;5046450;28;20029;-71
2023/08/08 10:18:06;;;;;;;2.80;1.27;;;;;;;21.99;66.23;101174.44;5043118;28;20108;-71
2023/08/08 10:20:34;;;;;;;2.22;1.00;;;;;;;21.62;63.76;101178.31;5044099;28;20318;-70
2023/08/08 10:23:02;;;;;;;2.83;1.10;;;;;;;21.42;62.62;101176.81;5054169;28;20040;-71
2023/08/08 10:25:30;;;;;;;2.13;1.30;;;;;;;22.07;64.77;101179.03;5055420;28;20033;-71
2023/08/08 10:28:23;;;;;;;2.88;1.35;;;;;;;21.98;65.09;101178.16;5050354;28;20029;-72
2023/08/08 10:30:52;;;;;;;3.85;1.13;;;;;;;21.77;62.50;101185.84;5039965;28;20155;-71
2023/08/08 10:33:20;;;;;;;6.60;1.60;;;;;;;21.56;63.13;101175.41;5044169;28;20116;-71
2023/08/08 10:36:04;;;;;;;3.45;1.30;;;;;;;21.37;63.52;101176.44;5048713;28;20025;-71
2023/08/08 10:38:50;;;;;;;4.50;1.33;;;;;;;21.03;64.08;101190.75;5039754;28;20131;-70
2023/08/08 10:41:20;;;;;;;1.60;1.15;;;;;;;21.28;64.79;101185.50;5052901;28;20036;-71
2023/08/08 10:43:49;;;;;;;4.50;1.45;;;;;;;21.04;65.37;101187.03;5052970;28;20040;-71
2023/08/08 10:46:26;;;;;;;1.55;1.30;;;;;;;20.51;64.74;101184.31;5041520;28;20136;-72
2023/08/08 10:48:54;;;;;;;4.82;1.20;;;;;;;20.72;64.94;101193.00;5047708;28;20511;-70
2023/08/08 10:51:20;;;;;;;4.28;1.27;;;;;;;21.16;63.10;101182.22;5045961;28;20048;-73
2023/08/08 10:53:45;;;;;;;1.10;1.00;;;;;;;21.30;63.42;101180.78;5042772;28;20390;-70
2023/08/08 10:56:14;;;;;;;1.25;0.93;;;;;;;20.72;64.43;101186.72;5046260;28;20497;-71
2023/08/08 10:58:42;;;;;;;3.47;1.13;;;;;;;20.75;65.60;101189.16;5052482;28;20090;-71
2023/08/08 11:01:09;;;;;;;2.88;1.27;;;;;;;20.84;65.79;101186.34;5051050;28;20033;-71
2023/08/08 11:03:49;;;;;;;4.15;0.98;;;;;;;21.10;64.02;101197.25;5041789;28;20033;-72
2023/08/08 11:06:15;;;;;;;3.38;1.30;;;;;;;21.34;65.37;101185.78;5051725;28;20037;-71
2023/08/08 11:08:40;;;;;;;2.05;1.17;;;;;;;21.21;65.06;101183.44;5052577;28;20075;-71